sensor_id;sensor_type;location;lat;lon;timestamp;pressure;altitude;pressure_sealevel;temperature;humidity
6032;BME280;3044;43.232;27.972;2023-05-08T00:00:41;45075.72;;;-143.84;75.83
6032;BME280;3044;43.232;27.972;2023-05-08T00:03:08;45089.06;;;-143.84;75.61
6032;BME280;3044;43.232;27.972;2023-05-08T00:05:35;45125.22;;;-143.84;75.43
6032;BME280;3044;43.232;27.972;2023-05-08T00:08:04;45079.53;;;-143.84;75.26
6032;BME280;3044;43.232;27.972;2023-05-08T00:10:31;45087.16;;;-143.84;75.15
6032;BME280;3044;43.232;27.972;2023-05-08T00:12:58;45119.53;;;-143.84;74.75
6032;BME280;3044;43.232;27.972;2023-05-08T00:15:25;45117.63;;;-143.84;75.04
6032;BME280;3044;43.232;27.972;2023-05-08T00:17:52;45113.81;;;-143.84;75.04
6032;BME280;3044;43.232;27.972;2023-05-08T00:20:20;45110.00;;;-143.84;75.04
6032;BME280;3044;43.232;27.972;2023-05-08T00:22:47;45108.09;;;-143.84;74.79
6032;BME280;3044;43.232;27.972;2023-05-08T00:25:15;45119.53;;;-143.84;74.58
6032;BME280;3044;43.232;27.972;2023-05-08T00:27:42;45100.47;;;-143.84;74.70
6032;BME280;3044;43.232;27.972;2023-05-08T00:30:10;45121.44;;;-143.84;74.81
6032;BME280;3044;43.232;27.972;2023-05-08T00:32:38;45102.38;;;-143.84;74.70
6032;BME280;3044;43.232;27.972;2023-05-08T00:35:05;45089.06;;;-143.84;74.30
6032;BME280;3044;43.232;27.972;2023-05-08T00:37:32;45102.38;;;-143.84;74.08
6032;BME280;3044;43.232;27.972;2023-05-08T00:39:59;45110.00;;;-143.84;74.14
6032;BME280;3044;43.232;27.972;2023-05-08T00:42:28;45113.81;;;-143.84;73.82
6032;BME280;3044;43.232;27.972;2023-05-08T00:44:55;45111.91;;;-143.84;73.19
6032;BME280;3044;43.232;27.972;2023-05-08T00:47:22;45075.72;;;-143.84;73.28
6032;BME280;3044;43.232;27.972;2023-05-08T00:49:49;45115.72;;;-143.84;73.29
6032;BME280;3044;43.232;27.972;2023-05-08T00:52:17;45098.56;;;-143.84;73.45
6032;BME280;3044;43.232;27.972;2023-05-08T00:54:45;45119.53;;;-143.84;73.10
6032;BME280;3044;43.232;27.972;2023-05-08T00:57:13;45111.91;;;-143.84;72.82
6032;BME280;3044;43.232;27.972;2023-05-08T00:59:42;45106.19;;;-143.84;72.70
6032;BME280;3044;43.232;27.972;2023-05-08T01:02:12;45077.63;;;-143.84;72.26
6032;BME280;3044;43.232;27.972;2023-05-08T01:04:39;45075.72;;;-143.84;72.03
6032;BME280;3044;43.232;27.972;2023-05-08T01:07:10;45123.34;;;-143.84;72.17
6032;BME280;3044;43.232;27.972;2023-05-08T01:09:37;45102.38;;;-143.84;72.14
6032;BME280;3044;43.232;27.972;2023-05-08T01:12:12;45094.78;;;-143.84;71.99
6032;BME280;3044;43.232;27.972;2023-05-08T01:14:53;45123.34;;;-143.84;72.24
6032;BME280;3044;43.232;27.972;2023-05-08T01:17:26;45102.38;;;-143.84;71.99
6032;BME280;3044;43.232;27.972;2023-05-08T01:20:07;45127.13;;;-143.84;71.85
6032;BME280;3044;43.232;27.972;2023-05-08T01:22:54;45096.66;;;-143.84;71.54
6032;BME280;3044;43.232;27.972;2023-05-08T01:29:12;45089.06;;;-143.84;70.93
6032;BME280;3044;43.232;27.972;2023-05-08T01:32:05;45136.66;;;-143.84;70.71
6032;BME280;3044;43.232;27.972;2023-05-08T01:34:38;45119.53;;;-143.84;70.63
6032;BME280;3044;43.232;27.972;2023-05-08T01:37:11;45117.63;;;-143.84;70.35
6032;BME280;3044;43.232;27.972;2023-05-08T01:39:45;45117.63;;;-143.84;70.26
6032;BME280;3044;43.232;27.972;2023-05-08T01:42:21;45104.28;;;-143.84;70.40
6032;BME280;3044;43.232;27.972;2023-05-08T01:44:53;45125.22;;;-143.84;69.91
6032;BME280;3044;43.232;27.972;2023-05-08T01:47:27;45102.38;;;-143.84;70.20
6032;BME280;3044;43.232;27.972;2023-05-08T01:50:02;45104.28;;;-143.84;69.96
6032;BME280;3044;43.232;27.972;2023-05-08T01:52:33;45108.09;;;-143.84;70.26
6032;BME280;3044;43.232;27.972;2023-05-08T01:55:04;45106.19;;;-143.84;70.15
6032;BME280;3044;43.232;27.972;2023-05-08T01:57:34;45121.44;;;-143.84;70.14
6032;BME280;3044;43.232;27.972;2023-05-08T02:00:03;45102.38;;;-143.84;69.60
6032;BME280;3044;43.232;27.972;2023-05-08T02:02:33;45129.03;;;-143.84;69.56
6032;BME280;3044;43.232;27.972;2023-05-08T02:05:02;45104.28;;;-143.84;69.63
6032;BME280;3044;43.232;27.972;2023-05-08T02:07:32;45129.03;;;-143.84;69.47
6032;BME280;3044;43.232;27.972;2023-05-08T02:10:03;45127.13;;;-143.84;69.18
6032;BME280;3044;43.232;27.972;2023-05-08T02:12:31;45129.03;;;-143.84;68.98
6032;BME280;3044;43.232;27.972;2023-05-08T02:15:00;45104.28;;;-143.84;68.76
6032;BME280;3044;43.232;27.972;2023-05-08T02:17:29;45121.44;;;-143.84;68.38
6032;BME280;3044;43.232;27.972;2023-05-08T02:19:59;45140.47;;;-143.84;67.81
6032;BME280;3044;43.232;27.972;2023-05-08T02:22:29;45115.72;;;-143.84;67.83
6032;BME280;3044;43.232;27.972;2023-05-08T02:24:57;45130.94;;;-143.84;67.63
6032;BME280;3044;43.232;27.972;2023-05-08T02:27:26;45111.91;;;-143.84;67.81
6032;BME280;3044;43.232;27.972;2023-05-08T02:29:54;45132.84;;;-143.84;67.48
6032;BME280;3044;43.232;27.972;2023-05-08T02:32:24;45125.22;;;-143.84;67.43
6032;BME280;3044;43.232;27.972;2023-05-08T02:34:52;45129.03;;;-143.84;66.96
6032;BME280;3044;43.232;27.972;2023-05-08T02:37:23;45113.81;;;-143.84;66.54
6032;BME280;3044;43.232;27.972;2023-05-08T02:39:55;45106.19;;;-143.84;66.61
6032;BME280;3044;43.232;27.972;2023-05-08T02:42:23;45096.66;;;-143.84;66.97
6032;BME280;3044;43.232;27.972;2023-05-08T02:44:50;45117.63;;;-143.84;67.04
6032;BME280;3044;43.232;27.972;2023-05-08T02:47:21;45100.47;;;-143.84;67.19
6032;BME280;3044;43.232;27.972;2023-05-08T02:49:53;45111.91;;;-143.84;66.80
6032;BME280;3044;43.232;27.972;2023-05-08T02:52:28;45117.63;;;-143.84;67.32
6032;BME280;3044;43.232;27.972;2023-05-08T02:54:58;45142.38;;;-143.84;67.22
6032;BME280;3044;43.232;27.972;2023-05-08T02:57:32;45121.44;;;-143.84;67.26
6032;BME280;3044;43.232;27.972;2023-05-08T03:00:04;45102.38;;;-143.84;67.18
6032;BME280;3044;43.232;27.972;2023-05-08T03:02:39;45110.00;;;-143.84;67.50
6032;BME280;3044;43.232;27.972;2023-05-08T03:05:12;45098.56;;;-143.84;66.90
6032;BME280;3044;43.232;27.972;2023-05-08T03:07:43;45106.19;;;-143.84;66.90
6032;BME280;3044;43.232;27.972;2023-05-08T03:10:12;45111.91;;;-143.84;67.10
6032;BME280;3044;43.232;27.972;2023-05-08T03:12:44;45102.38;;;-143.84;66.90
6032;BME280;3044;43.232;27.972;2023-05-08T03:15:17;45102.38;;;-143.84;67.33
6032;BME280;3044;43.232;27.972;2023-05-08T03:17:46;45108.09;;;-143.84;67.36
6032;BME280;3044;43.232;27.972;2023-05-08T03:20:16;45090.97;;;-143.84;67.18
6032;BME280;3044;43.232;27.972;2023-05-08T03:22:47;45111.91;;;-143.84;67.58
6032;BME280;3044;43.232;27.972;2023-05-08T03:25:16;45127.13;;;-143.84;67.77
6032;BME280;3044;43.232;27.972;2023-05-08T03:27:44;45117.63;;;-143.84;66.48
6032;BME280;3044;43.232;27.972;2023-05-08T03:30:13;45125.22;;;-143.84;66.00
6032;BME280;3044;43.232;27.972;2023-05-08T03:32:43;45117.63;;;-143.84;66.13
6032;BME280;3044;43.232;27.972;2023-05-08T03:35:12;45083.34;;;-143.84;65.66
6032;BME280;3044;43.232;27.972;2023-05-08T03:37:40;45108.09;;;-143.84;65.72
6032;BME280;3044;43.232;27.972;2023-05-08T03:40:10;45104.28;;;-143.84;64.49
6032;BME280;3044;43.232;27.972;2023-05-08T03:42:39;45117.63;;;-143.84;62.80
6032;BME280;3044;43.232;27.972;2023-05-08T03:45:09;45106.19;;;-143.84;60.41
6032;BME280;3044;43.232;27.972;2023-05-08T03:47:36;45111.91;;;-143.84;57.08
6032;BME280;3044;43.232;27.972;2023-05-08T03:50:06;45106.19;;;-143.84;54.88
6032;BME280;3044;43.232;27.972;2023-05-08T03:52:34;45070.00;;;-143.84;52.87
6032;BME280;3044;43.232;27.972;2023-05-08T03:55:01;45073.81;;;-143.84;50.77
6032;BME280;3044;43.232;27.972;2023-05-08T03:57:34;45043.34;;;-143.84;48.74
6032;BME280;3044;43.232;27.972;2023-05-08T04:00:08;45068.13;;;-143.84;47.17
6032;BME280;3044;43.232;27.972;2023-05-08T04:02:44;45047.16;;;-143.84;45.69
6032;BME280;3044;43.232;27.972;2023-05-08T04:05:19;45033.84;;;-143.84;44.78
6032;BME280;3044;43.232;27.972;2023-05-08T04:07:51;45041.44;;;-143.84;40.48
6032;BME280;3044;43.232;27.972;2023-05-08T04:10:23;45020.50;;;-143.84;39.86
6032;BME280;3044;43.232;27.972;2023-05-08T04:12:59;45033.84;;;-143.84;39.36
6032;BME280;3044;43.232;27.972;2023-05-08T04:15:33;45009.09;;;-143.84;39.21
6032;BME280;3044;43.232;27.972;2023-05-08T04:18:05;45039.53;;;-143.84;39.42
6032;BME280;3044;43.232;27.972;2023-05-08T04:20:34;45043.34;;;-143.84;39.06
6032;BME280;3044;43.232;27.972;2023-05-08T04:23:05;45024.31;;;-143.84;38.29
6032;BME280;3044;43.232;27.972;2023-05-08T04:25:35;45028.13;;;-143.84;38.83
6032;BME280;3044;43.232;27.972;2023-05-08T04:28:05;45020.50;;;-143.84;39.93
6032;BME280;3044;43.232;27.972;2023-05-08T04:30:32;45047.16;;;-143.84;40.46
6032;BME280;3044;43.232;27.972;2023-05-08T04:33:01;45030.03;;;-143.84;40.23
6032;BME280;3044;43.232;27.972;2023-05-08T04:35:29;45028.13;;;-143.84;40.68
6032;BME280;3044;43.232;27.972;2023-05-08T04:37:57;45026.22;;;-143.84;40.27
6032;BME280;3044;43.232;27.972;2023-05-08T04:40:25;45060.50;;;-143.84;40.23
6032;BME280;3044;43.232;27.972;2023-05-08T04:42:52;45037.66;;;-143.84;40.00
6032;BME280;3044;43.232;27.972;2023-05-08T04:45:21;45010.97;;;-143.84;39.38
6032;BME280;3044;43.232;27.972;2023-05-08T04:47:48;45039.53;;;-143.84;39.92
6032;BME280;3044;43.232;27.972;2023-05-08T04:50:15;45016.69;;;-143.84;39.38
6032;BME280;3044;43.232;27.972;2023-05-08T04:52:42;45026.22;;;-143.84;39.72
6032;BME280;3044;43.232;27.972;2023-05-08T04:55:09;45047.16;;;-143.84;39.50
6032;BME280;3044;43.232;27.972;2023-05-08T04:57:36;45033.84;;;-143.84;38.81
6032;BME280;3044;43.232;27.972;2023-05-08T05:00:05;45031.94;;;-143.84;38.63
6032;BME280;3044;43.232;27.972;2023-05-08T05:02:34;45033.84;;;-143.84;39.00
6032;BME280;3044;43.232;27.972;2023-05-08T05:05:01;45043.34;;;-143.84;39.03
6032;BME280;3044;43.232;27.972;2023-05-08T05:07:28;45018.59;;;-143.84;39.49
6032;BME280;3044;43.232;27.972;2023-05-08T05:09:55;45010.97;;;-143.84;40.43
6032;BME280;3044;43.232;27.972;2023-05-08T05:12:22;45049.06;;;-143.84;40.54
6032;BME280;3044;43.232;27.972;2023-05-08T05:14:49;45028.13;;;-143.84;40.63
6032;BME280;3044;43.232;27.972;2023-05-08T05:17:16;45047.16;;;-143.84;41.73
6032;BME280;3044;43.232;27.972;2023-05-08T05:19:45;45028.13;;;-143.84;40.71
6032;BME280;3044;43.232;27.972;2023-05-08T05:22:12;45024.31;;;-143.84;40.77
6032;BME280;3044;43.232;27.972;2023-05-08T05:24:39;45031.94;;;-143.84;38.88
6032;BME280;3044;43.232;27.972;2023-05-08T05:27:06;45039.53;;;-143.84;39.06
6032;BME280;3044;43.232;27.972;2023-05-08T05:29:33;45028.13;;;-143.84;38.83
6032;BME280;3044;43.232;27.972;2023-05-08T05:32:01;45022.41;;;-143.84;38.89
6032;BME280;3044;43.232;27.972;2023-05-08T05:34:28;45039.53;;;-143.84;38.36
6032;BME280;3044;43.232;27.972;2023-05-08T05:36:57;45037.66;;;-143.84;38.86
6032;BME280;3044;43.232;27.972;2023-05-08T05:39:24;45007.19;;;-143.84;38.52
6032;BME280;3044;43.232;27.972;2023-05-08T05:41:51;45041.44;;;-143.84;39.83
6032;BME280;3044;43.232;27.972;2023-05-08T05:44:18;45035.75;;;-143.84;39.37
6032;BME280;3044;43.232;27.972;2023-05-08T05:46:45;45005.28;;;-143.84;38.94
6032;BME280;3044;43.232;27.972;2023-05-08T05:49:12;45043.34;;;-143.84;39.21
6032;BME280;3044;43.232;27.972;2023-05-08T05:51:39;45022.41;;;-143.84;40.60
6032;BME280;3044;43.232;27.972;2023-05-08T05:54:08;45054.78;;;-143.84;40.89
6032;BME280;3044;43.232;27.972;2023-05-08T05:56:35;45031.94;;;-143.84;41.91
6032;BME280;3044;43.232;27.972;2023-05-08T05:59:03;45045.25;;;-143.84;42.72
6032;BME280;3044;43.232;27.972;2023-05-08T06:01:30;45052.88;;;-143.84;41.85
6032;BME280;3044;43.232;27.972;2023-05-08T06:03:57;45026.22;;;-143.84;41.86
6032;BME280;3044;43.232;27.972;2023-05-08T06:06:24;45047.16;;;-143.84;43.67
6032;BME280;3044;43.232;27.972;2023-05-08T06:08:51;45022.41;;;-143.84;43.13
6032;BME280;3044;43.232;27.972;2023-05-08T06:11:20;45039.53;;;-143.84;41.99
6032;BME280;3044;43.232;27.972;2023-05-08T06:13:48;45014.78;;;-143.84;41.96
6032;BME280;3044;43.232;27.972;2023-05-08T06:16:15;45030.03;;;-143.84;42.34
6032;BME280;3044;43.232;27.972;2023-05-08T06:18:42;45026.22;;;-143.84;42.79
6032;BME280;3044;43.232;27.972;2023-05-08T06:21:09;45039.53;;;-143.84;42.57
6032;BME280;3044;43.232;27.972;2023-05-08T06:23:36;45031.94;;;-143.84;44.20
6032;BME280;3044;43.232;27.972;2023-05-08T06:26:03;45022.41;;;-143.84;44.90
6032;BME280;3044;43.232;27.972;2023-05-08T06:28:32;45014.78;;;-143.84;44.53
6032;BME280;3044;43.232;27.972;2023-05-08T06:30:59;45033.84;;;-143.84;42.94
6032;BME280;3044;43.232;27.972;2023-05-08T06:33:26;45010.97;;;-143.84;41.73
6032;BME280;3044;43.232;27.972;2023-05-08T06:35:54;45035.75;;;-143.84;42.59
6032;BME280;3044;43.232;27.972;2023-05-08T06:38:21;45026.22;;;-143.84;40.46
6032;BME280;3044;43.232;27.972;2023-05-08T06:40:49;45045.25;;;-143.84;40.74
6032;BME280;3044;43.232;27.972;2023-05-08T06:43:16;44999.56;;;-143.84;41.49
6032;BME280;3044;43.232;27.972;2023-05-08T06:45:44;45003.38;;;-143.84;40.28
6032;BME280;3044;43.232;27.972;2023-05-08T06:48:12;44999.56;;;-143.84;40.38
6032;BME280;3044;43.232;27.972;2023-05-08T06:50:39;45020.50;;;-143.84;40.11
6032;BME280;3044;43.232;27.972;2023-05-08T06:53:07;45022.41;;;-143.84;41.25
6032;BME280;3044;43.232;27.972;2023-05-08T06:55:34;45026.22;;;-143.84;41.05
6032;BME280;3044;43.232;27.972;2023-05-08T06:58:01;45009.09;;;-143.84;41.35
6032;BME280;3044;43.232;27.972;2023-05-08T07:00:29;45031.94;;;-143.84;42.91
6032;BME280;3044;43.232;27.972;2023-05-08T07:02:57;45014.78;;;-143.84;41.68
6032;BME280;3044;43.232;27.972;2023-05-08T07:05:25;45041.44;;;-143.84;42.81
6032;BME280;3044;43.232;27.972;2023-05-08T07:07:52;45039.53;;;-143.84;42.59
6032;BME280;3044;43.232;27.972;2023-05-08T07:10:19;45045.25;;;-143.84;42.60
6032;BME280;3044;43.232;27.972;2023-05-08T07:12:47;45049.06;;;-143.84;41.95
6032;BME280;3044;43.232;27.972;2023-05-08T07:15:14;45010.97;;;-143.84;40.77
6032;BME280;3044;43.232;27.972;2023-05-08T07:17:42;45033.84;;;-143.84;41.03
6032;BME280;3044;43.232;27.972;2023-05-08T07:20:10;45014.78;;;-143.84;40.98
6032;BME280;3044;43.232;27.972;2023-05-08T07:22:37;45043.34;;;-143.84;41.83
6032;BME280;3044;43.232;27.972;2023-05-08T07:25:06;45018.59;;;-143.84;43.30
6032;BME280;3044;43.232;27.972;2023-05-08T07:27:33;45049.06;;;-143.84;42.30
6032;BME280;3044;43.232;27.972;2023-05-08T07:30:00;45045.25;;;-143.84;43.15
6032;BME280;3044;43.232;27.972;2023-05-08T07:32:28;45041.44;;;-143.84;43.85
6032;BME280;3044;43.232;27.972;2023-05-08T07:34:56;45035.75;;;-143.84;43.91
6032;BME280;3044;43.232;27.972;2023-05-08T07:37:25;45054.78;;;-143.84;42.88
6032;BME280;3044;43.232;27.972;2023-05-08T07:39:54;45030.03;;;-143.84;43.87
6032;BME280;3044;43.232;27.972;2023-05-08T07:42:21;45039.53;;;-143.84;43.05
6032;BME280;3044;43.232;27.972;2023-05-08T07:44:48;45028.13;;;-143.84;43.54
6032;BME280;3044;43.232;27.972;2023-05-08T07:47:15;45020.50;;;-143.84;42.19
6032;BME280;3044;43.232;27.972;2023-05-08T07:49:42;45014.78;;;-143.84;41.29
6032;BME280;3044;43.232;27.972;2023-05-08T07:52:09;45037.66;;;-143.84;39.17
6032;BME280;3044;43.232;27.972;2023-05-08T07:54:38;45045.25;;;-143.84;39.99
6032;BME280;3044;43.232;27.972;2023-05-08T07:57:05;45012.88;;;-143.84;39.98
6032;BME280;3044;43.232;27.972;2023-05-08T07:59:32;45018.59;;;-143.84;39.54
6032;BME280;3044;43.232;27.972;2023-05-08T08:01:59;45022.41;;;-143.84;38.20
6032;BME280;3044;43.232;27.972;2023-05-08T08:04:26;45009.09;;;-143.84;39.63
6032;BME280;3044;43.232;27.972;2023-05-08T08:06:53;45010.97;;;-143.84;40.45
6032;BME280;3044;43.232;27.972;2023-05-08T08:09:20;45026.22;;;-143.84;39.92
6032;BME280;3044;43.232;27.972;2023-05-08T08:11:49;45028.13;;;-143.84;40.83
6032;BME280;3044;43.232;27.972;2023-05-08T08:14:16;45039.53;;;-143.84;40.05
6032;BME280;3044;43.232;27.972;2023-05-08T08:16:43;45033.84;;;-143.84;41.11
6032;BME280;3044;43.232;27.972;2023-05-08T08:19:10;45035.75;;;-143.84;40.18
6032;BME280;3044;43.232;27.972;2023-05-08T08:21:41;45047.16;;;-143.84;41.32
6032;BME280;3044;43.232;27.972;2023-05-08T08:24:08;45050.97;;;-143.84;40.47
6032;BME280;3044;43.232;27.972;2023-05-08T08:26:35;45018.59;;;-143.84;40.40
6032;BME280;3044;43.232;27.972;2023-05-08T08:29:04;45016.69;;;-143.84;41.20
6032;BME280;3044;43.232;27.972;2023-05-08T08:31:31;45043.34;;;-143.84;40.47
6032;BME280;3044;43.232;27.972;2023-05-08T08:33:58;45033.84;;;-143.84;41.26
6032;BME280;3044;43.232;27.972;2023-05-08T08:36:25;45005.28;;;-143.84;43.08
6032;BME280;3044;43.232;27.972;2023-05-08T08:38:52;45047.16;;;-143.84;42.82
6032;BME280;3044;43.232;27.972;2023-05-08T08:41:19;45028.13;;;-143.84;42.47
6032;BME280;3044;43.232;27.972;2023-05-08T08:43:47;45026.22;;;-143.84;43.10
6032;BME280;3044;43.232;27.972;2023-05-08T08:46:19;45052.88;;;-143.84;43.52
6032;BME280;3044;43.232;27.972;2023-05-08T08:48:50;45047.16;;;-143.84;43.50
6032;BME280;3044;43.232;27.972;2023-05-08T08:51:24;45024.31;;;-143.84;41.96
6032;BME280;3044;43.232;27.972;2023-05-08T08:54:00;45026.22;;;-143.84;44.05
6032;BME280;3044;43.232;27.972;2023-05-08T08:56:30;45035.75;;;-143.84;43.38
6032;BME280;3044;43.232;27.972;2023-05-08T08:59:02;45018.59;;;-143.84;44.43
6032;BME280;3044;43.232;27.972;2023-05-08T09:01:35;45043.34;;;-143.84;45.80
6032;BME280;3044;43.232;27.972;2023-05-08T09:04:04;45041.44;;;-143.84;46.10
6032;BME280;3044;43.232;27.972;2023-05-08T09:06:34;45035.75;;;-143.84;46.15
6032;BME280;3044;43.232;27.972;2023-05-08T09:09:03;45031.94;;;-143.84;46.22
6032;BME280;3044;43.232;27.972;2023-05-08T09:11:30;45041.44;;;-143.84;46.25
6032;BME280;3044;43.232;27.972;2023-05-08T09:13:57;45033.84;;;-143.84;46.27
6032;BME280;3044;43.232;27.972;2023-05-08T09:16:27;45033.84;;;-143.84;45.13
6032;BME280;3044;43.232;27.972;2023-05-08T09:18:55;45033.84;;;-143.84;45.86
6032;BME280;3044;43.232;27.972;2023-05-08T09:21:22;45018.59;;;-143.84;46.78
6032;BME280;3044;43.232;27.972;2023-05-08T09:23:56;45049.06;;;-143.84;48.03
6032;BME280;3044;43.232;27.972;2023-05-08T09:26:28;45018.59;;;-143.84;46.90
6032;BME280;3044;43.232;27.972;2023-05-08T09:29:11;45049.06;;;-143.84;47.47
6032;BME280;3044;43.232;27.972;2023-05-08T09:31:39;45073.81;;;-143.84;48.23
6032;BME280;3044;43.232;27.972;2023-05-08T09:34:09;45035.75;;;-143.84;46.93
6032;BME280;3044;43.232;27.972;2023-05-08T09:36:37;45033.84;;;-143.84;46.00
6032;BME280;3044;43.232;27.972;2023-05-08T09:39:09;45031.94;;;-143.84;46.22
6032;BME280;3044;43.232;27.972;2023-05-08T09:41:38;45066.22;;;-143.84;45.58
6032;BME280;3044;43.232;27.972;2023-05-08T09:44:06;45037.66;;;-143.84;45.89
6032;BME280;3044;43.232;27.972;2023-05-08T09:46:33;45037.66;;;-143.84;47.00
6032;BME280;3044;43.232;27.972;2023-05-08T09:49:02;45050.97;;;-143.84;47.23
6032;BME280;3044;43.232;27.972;2023-05-08T09:51:31;45049.06;;;-143.84;47.09
6032;BME280;3044;43.232;27.972;2023-05-08T09:53:58;45045.25;;;-143.84;46.54
6032;BME280;3044;43.232;27.972;2023-05-08T09:56:30;45049.06;;;-143.84;46.06
6032;BME280;3044;43.232;27.972;2023-05-08T09:58:57;45033.84;;;-143.84;47.03
6032;BME280;3044;43.232;27.972;2023-05-08T10:01:29;45039.53;;;-143.84;45.81
6032;BME280;3044;43.232;27.972;2023-05-08T10:03:57;45039.53;;;-143.84;45.88
6032;BME280;3044;43.232;27.972;2023-05-08T10:06:24;45033.84;;;-143.84;44.99
6032;BME280;3044;43.232;27.972;2023-05-08T10:09:10;45035.75;;;-143.84;46.13
6032;BME280;3044;43.232;27.972;2023-05-08T10:11:40;45047.16;;;-143.84;47.74
6032;BME280;3044;43.232;27.972;2023-05-08T10:14:07;45039.53;;;-143.84;48.08
6032;BME280;3044;43.232;27.972;2023-05-08T10:16:41;45075.72;;;-143.84;46.52
6032;BME280;3044;43.232;27.972;2023-05-08T10:19:12;45024.31;;;-143.84;46.22
6032;BME280;3044;43.232;27.972;2023-05-08T10:21:41;45054.78;;;-143.84;43.19
6032;BME280;3044;43.232;27.972;2023-05-08T10:24:15;45052.88;;;-143.84;46.35
6032;BME280;3044;43.232;27.972;2023-05-08T10:26:47;45033.84;;;-143.84;45.34
6032;BME280;3044;43.232;27.972;2023-05-08T10:29:18;45043.34;;;-143.84;45.50
6032;BME280;3044;43.232;27.972;2023-05-08T10:31:49;45060.50;;;-143.84;45.52
6032;BME280;3044;43.232;27.972;2023-05-08T10:34:22;45039.53;;;-143.84;44.41
6032;BME280;3044;43.232;27.972;2023-05-08T10:36:50;45062.41;;;-143.84;45.27
6032;BME280;3044;43.232;27.972;2023-05-08T10:39:20;45033.84;;;-143.84;44.03
6032;BME280;3044;43.232;27.972;2023-05-08T10:41:48;45047.16;;;-143.84;44.98
6032;BME280;3044;43.232;27.972;2023-05-08T10:44:16;45033.84;;;-143.84;44.56
6032;BME280;3044;43.232;27.972;2023-05-08T10:46:51;45041.44;;;-143.84;44.17
6032;BME280;3044;43.232;27.972;2023-05-08T10:49:27;45005.28;;;-143.84;43.41
6032;BME280;3044;43.232;27.972;2023-05-08T10:52:11;45031.94;;;-143.84;43.90
6032;BME280;3044;43.232;27.972;2023-05-08T10:55:08;45024.31;;;-143.84;43.88
6032;BME280;3044;43.232;27.972;2023-05-08T10:58:03;45058.59;;;-143.84;44.43
6032;BME280;3044;43.232;27.972;2023-05-08T11:00:32;45043.34;;;-143.84;42.65
6032;BME280;3044;43.232;27.972;2023-05-08T11:03:22;45049.06;;;-143.84;42.07
6032;BME280;3044;43.232;27.972;2023-05-08T11:05:51;45022.41;;;-143.84;42.91
6032;BME280;3044;43.232;27.972;2023-05-08T11:08:19;45037.66;;;-143.84;44.27
6032;BME280;3044;43.232;27.972;2023-05-08T11:10:51;45071.91;;;-143.84;43.39
6032;BME280;3044;43.232;27.972;2023-05-08T11:13:27;45045.25;;;-143.84;44.96
6032;BME280;3044;43.232;27.972;2023-05-08T11:15:55;45035.75;;;-143.84;45.57
6032;BME280;3044;43.232;27.972;2023-05-08T11:18:22;45050.97;;;-143.84;44.13
6032;BME280;3044;43.232;27.972;2023-05-08T11:21:00;45045.25;;;-143.84;44.96
6032;BME280;3044;43.232;27.972;2023-05-08T11:23:29;45054.78;;;-143.84;46.72
6032;BME280;3044;43.232;27.972;2023-05-08T11:26:02;45039.53;;;-143.84;45.29
6032;BME280;3044;43.232;27.972;2023-05-08T11:28:30;45041.44;;;-143.84;45.53
6032;BME280;3044;43.232;27.972;2023-05-08T11:31:02;45062.41;;;-143.84;46.24
6032;BME280;3044;43.232;27.972;2023-05-08T11:33:30;45056.69;;;-143.84;45.28
6032;BME280;3044;43.232;27.972;2023-05-08T11:35:58;45083.34;;;-143.84;46.58
6032;BME280;3044;43.232;27.972;2023-05-08T11:38:28;45121.44;;;-143.84;46.74
6032;BME280;3044;43.232;27.972;2023-05-08T11:41:01;45037.66;;;-143.84;48.36
6032;BME280;3044;43.232;27.972;2023-05-08T11:46:40;45043.34;;;-143.84;49.52
6032;BME280;3044;43.232;27.972;2023-05-08T11:49:13;45052.88;;;-143.84;47.36
6032;BME280;3044;43.232;27.972;2023-05-08T11:51:42;45060.50;;;-143.84;47.22
6032;BME280;3044;43.232;27.972;2023-05-08T11:54:15;45050.97;;;-143.84;47.86
6032;BME280;3044;43.232;27.972;2023-05-08T11:56:44;45035.75;;;-143.84;49.00
6032;BME280;3044;43.232;27.972;2023-05-08T11:59:12;45045.25;;;-143.84;47.95
6032;BME280;3044;43.232;27.972;2023-05-08T12:01:39;45054.78;;;-143.84;48.13
6032;BME280;3044;43.232;27.972;2023-05-08T12:04:08;45068.13;;;-143.84;49.66
6032;BME280;3044;43.232;27.972;2023-05-08T12:06:36;45060.50;;;-143.84;48.83
6032;BME280;3044;43.232;27.972;2023-05-08T12:09:10;45056.69;;;-143.84;45.87
6032;BME280;3044;43.232;27.972;2023-05-08T12:11:37;45056.69;;;-143.84;46.69
6032;BME280;3044;43.232;27.972;2023-05-08T12:14:07;45049.06;;;-143.84;47.77
6032;BME280;3044;43.232;27.972;2023-05-08T12:16:35;45056.69;;;-143.84;44.55
6032;BME280;3044;43.232;27.972;2023-05-08T12:19:03;45037.66;;;-143.84;44.92
6032;BME280;3044;43.232;27.972;2023-05-08T12:21:31;45089.06;;;-143.84;46.87
6032;BME280;3044;43.232;27.972;2023-05-08T12:23:59;45062.41;;;-143.84;46.52
6032;BME280;3044;43.232;27.972;2023-05-08T12:26:28;45052.88;;;-143.84;45.10
6032;BME280;3044;43.232;27.972;2023-05-08T12:28:55;45077.63;;;-143.84;46.18
6032;BME280;3044;43.232;27.972;2023-05-08T12:31:24;45062.41;;;-143.84;45.69
6032;BME280;3044;43.232;27.972;2023-05-08T12:33:51;45066.22;;;-143.84;46.55
6032;BME280;3044;43.232;27.972;2023-05-08T12:36:19;45077.63;;;-143.84;47.05
6032;BME280;3044;43.232;27.972;2023-05-08T12:38:46;45047.16;;;-143.84;47.49
6032;BME280;3044;43.232;27.972;2023-05-08T12:41:13;45060.50;;;-143.84;48.42
6032;BME280;3044;43.232;27.972;2023-05-08T12:43:40;45054.78;;;-143.84;49.67
6032;BME280;3044;43.232;27.972;2023-05-08T12:46:10;45068.13;;;-143.84;47.36
6032;BME280;3044;43.232;27.972;2023-05-08T12:48:40;45068.13;;;-143.84;46.52
6032;BME280;3044;43.232;27.972;2023-05-08T12:51:09;45064.31;;;-143.84;48.06
6032;BME280;3044;43.232;27.972;2023-05-08T12:53:36;45045.25;;;-143.84;49.93
6032;BME280;3044;43.232;27.972;2023-05-08T12:56:04;45035.75;;;-143.84;50.52
6032;BME280;3044;43.232;27.972;2023-05-08T12:58:32;45075.72;;;-143.84;53.13
6032;BME280;3044;43.232;27.972;2023-05-08T13:01:04;45056.69;;;-143.84;52.06
6032;BME280;3044;43.232;27.972;2023-05-08T13:03:32;45066.22;;;-143.84;52.06
6032;BME280;3044;43.232;27.972;2023-05-08T13:06:01;45064.31;;;-143.84;53.24
6032;BME280;3044;43.232;27.972;2023-05-08T13:08:29;45070.00;;;-143.84;53.67